sensor_id;sensor_type;location;lat;lon;timestamp;P1;durP1;ratioP1;P2;durP2;ratioP2
928;SDS011;451;47.988;7.842;2023-02-22T00:00:38;3.67;;;3.37;;
928;SDS011;451;47.988;7.842;2023-02-22T00:09:44;3.07;;;2.87;;
928;SDS011;451;47.988;7.842;2023-02-22T00:18:49;3.30;;;3.00;;
928;SDS011;451;47.988;7.842;2023-02-22T00:27:52;3.80;;;3.47;;
928;SDS011;451;47.988;7.842;2023-02-22T00:36:56;3.03;;;2.80;;
928;SDS011;451;47.988;7.842;2023-02-22T00:46:03;3.30;;;3.00;;
928;SDS011;451;47.988;7.842;2023-02-22T00:55:09;2.87;;;2.67;;
928;SDS011;451;47.988;7.842;2023-02-22T01:04:16;3.00;;;2.80;;
928;SDS011;451;47.988;7.842;2023-02-22T01:13:21;2.73;;;2.53;;
928;SDS011;451;47.988;7.842;2023-02-22T01:22:24;3.80;;;2.30;;
928;SDS011;451;47.988;7.842;2023-02-22T01:31:29;3.30;;;2.83;;
928;SDS011;451;47.988;7.842;2023-02-22T01:40:33;2.50;;;2.40;;
928;SDS011;451;47.988;7.842;2023-02-22T01:49:40;2.70;;;2.50;;
928;SDS011;451;47.988;7.842;2023-02-22T01:58:47;3.33;;;2.80;;
928;SDS011;451;47.988;7.842;2023-02-22T02:07:54;2.57;;;2.47;;
928;SDS011;451;47.988;7.842;2023-02-22T02:16:57;2.80;;;2.53;;
928;SDS011;451;47.988;7.842;2023-02-22T02:35:46;2.57;;;2.40;;
928;SDS011;451;47.988;7.842;2023-02-22T02:44:54;2.70;;;2.50;;
928;SDS011;451;47.988;7.842;2023-02-22T02:54:04;2.60;;;2.40;;
928;SDS011;451;47.988;7.842;2023-02-22T03:03:14;6.53;;;4.40;;
928;SDS011;451;47.988;7.842;2023-02-22T03:12:31;3.33;;;2.70;;
928;SDS011;451;47.988;7.842;2023-02-22T03:21:45;3.20;;;2.73;;
928;SDS011;451;47.988;7.842;2023-02-22T03:30:59;3.20;;;2.40;;
928;SDS011;451;47.988;7.842;2023-02-22T03:40:06;2.00;;;1.90;;
928;SDS011;451;47.988;7.842;2023-02-22T03:49:18;2.40;;;2.20;;
928;SDS011;451;47.988;7.842;2023-02-22T03:58:26;3.10;;;2.90;;
928;SDS011;451;47.988;7.842;2023-02-22T04:07:36;2.20;;;2.10;;
928;SDS011;451;47.988;7.842;2023-02-22T04:16:39;3.70;;;2.47;;
928;SDS011;451;47.988;7.842;2023-02-22T04:25:46;3.60;;;2.70;;
928;SDS011;451;47.988;7.842;2023-02-22T04:34:52;2.93;;;2.40;;
928;SDS011;451;47.988;7.842;2023-02-22T04:43:56;2.30;;;2.20;;
928;SDS011;451;47.988;7.842;2023-02-22T04:53:01;3.53;;;2.60;;
928;SDS011;451;47.988;7.842;2023-02-22T05:02:05;3.63;;;3.00;;
928;SDS011;451;47.988;7.842;2023-02-22T05:11:08;3.10;;;2.63;;
928;SDS011;451;47.988;7.842;2023-02-22T05:20:16;2.53;;;2.33;;
928;SDS011;451;47.988;7.842;2023-02-22T05:29:24;3.30;;;3.00;;
928;SDS011;451;47.988;7.842;2023-02-22T05:38:28;3.83;;;3.53;;
928;SDS011;451;47.988;7.842;2023-02-22T05:47:31;3.43;;;3.23;;
928;SDS011;451;47.988;7.842;2023-02-22T05:56:36;6.33;;;3.40;;
928;SDS011;451;47.988;7.842;2023-02-22T06:05:41;3.50;;;3.20;;
928;SDS011;451;47.988;7.842;2023-02-22T06:14:46;3.90;;;3.40;;
928;SDS011;451;47.988;7.842;2023-02-22T06:23:49;4.43;;;3.90;;
928;SDS011;451;47.988;7.842;2023-02-22T06:32:54;5.47;;;3.90;;
928;SDS011;451;47.988;7.842;2023-02-22T06:41:58;4.27;;;3.93;;
928;SDS011;451;47.988;7.842;2023-02-22T06:51:03;5.87;;;4.40;;
928;SDS011;451;47.988;7.842;2023-02-22T07:00:06;13.13;;;7.80;;
928;SDS011;451;47.988;7.842;2023-02-22T07:09:12;6.73;;;5.03;;
928;SDS011;451;47.988;7.842;2023-02-22T07:18:15;4.50;;;4.10;;
928;SDS011;451;47.988;7.842;2023-02-22T07:27:19;5.77;;;4.93;;
928;SDS011;451;47.988;7.842;2023-02-22T07:36:23;4.50;;;4.10;;
928;SDS011;451;47.988;7.842;2023-02-22T07:45:28;5.10;;;4.70;;
928;SDS011;451;47.988;7.842;2023-02-22T07:54:31;7.23;;;5.33;;
928;SDS011;451;47.988;7.842;2023-02-22T08:03:36;7.90;;;5.00;;
928;SDS011;451;47.988;7.842;2023-02-22T08:12:39;7.13;;;5.57;;
928;SDS011;451;47.988;7.842;2023-02-22T08:21:43;5.40;;;4.90;;
928;SDS011;451;47.988;7.842;2023-02-22T08:30:46;6.20;;;5.50;;
928;SDS011;451;47.988;7.842;2023-02-22T08:39:52;7.17;;;5.73;;
928;SDS011;451;47.988;7.842;2023-02-22T08:48:56;7.03;;;5.40;;
928;SDS011;451;47.988;7.842;2023-02-22T08:58:01;6.43;;;4.87;;
928;SDS011;451;47.988;7.842;2023-02-22T09:07:06;5.60;;;5.10;;
928;SDS011;451;47.988;7.842;2023-02-22T09:16:11;5.57;;;4.30;;
928;SDS011;451;47.988;7.842;2023-02-22T09:25:14;6.00;;;4.83;;
928;SDS011;451;47.988;7.842;2023-02-22T09:34:21;6.73;;;5.57;;
928;SDS011;451;47.988;7.842;2023-02-22T09:43:32;11.27;;;9.13;;
928;SDS011;451;47.988;7.842;2023-02-22T09:52:46;19.70;;;14.40;;
928;SDS011;451;47.988;7.842;2023-02-22T10:01:57;20.00;;;15.20;;
928;SDS011;451;47.988;7.842;2023-02-22T10:11:10;18.47;;;13.97;;
928;SDS011;451;47.988;7.842;2023-02-22T10:20:26;19.30;;;14.33;;
928;SDS011;451;47.988;7.842;2023-02-22T10:29:43;20.23;;;14.10;;
928;SDS011;451;47.988;7.842;2023-02-22T10:38:51;22.20;;;15.00;;
928;SDS011;451;47.988;7.842;2023-02-22T10:47:59;19.77;;;13.00;;
928;SDS011;451;47.988;7.842;2023-02-22T10:57:09;22.33;;;16.80;;
928;SDS011;451;47.988;7.842;2023-02-22T11:06:18;23.13;;;17.27;;
928;SDS011;451;47.988;7.842;2023-02-22T11:15:26;22.63;;;15.57;;
928;SDS011;451;47.988;7.842;2023-02-22T11:24:31;22.57;;;15.93;;
928;SDS011;451;47.988;7.842;2023-02-22T11:33:36;20.80;;;16.20;;
928;SDS011;451;47.988;7.842;2023-02-22T11:42:41;17.63;;;14.90;;
928;SDS011;451;47.988;7.842;2023-02-22T11:51:55;19.37;;;15.53;;
928;SDS011;451;47.988;7.842;2023-02-22T12:01:10;17.80;;;14.63;;
928;SDS011;451;47.988;7.842;2023-02-22T12:10:25;19.43;;;14.90;;
928;SDS011;451;47.988;7.842;2023-02-22T12:19:37;18.87;;;15.57;;
928;SDS011;451;47.988;7.842;2023-02-22T12:28:47;20.10;;;15.47;;
928;SDS011;451;47.988;7.842;2023-02-22T12:38:02;20.00;;;15.17;;
928;SDS011;451;47.988;7.842;2023-02-22T12:47:13;19.27;;;15.57;;
928;SDS011;451;47.988;7.842;2023-02-22T12:56:21;21.93;;;15.90;;
928;SDS011;451;47.988;7.842;2023-02-22T13:05:32;16.23;;;13.80;;
928;SDS011;451;47.988;7.842;2023-02-22T13:14:42;17.17;;;15.40;;
928;SDS011;451;47.988;7.842;2023-02-22T13:23:55;20.20;;;15.80;;
928;SDS011;451;47.988;7.842;2023-02-22T13:33:13;21.00;;;15.87;;
928;SDS011;451;47.988;7.842;2023-02-22T13:42:30;21.93;;;15.13;;
928;SDS011;451;47.988;7.842;2023-02-22T13:51:47;21.97;;;16.10;;
928;SDS011;451;47.988;7.842;2023-02-22T14:00:52;23.27;;;16.77;;
928;SDS011;451;47.988;7.842;2023-02-22T14:09:58;21.37;;;15.63;;
928;SDS011;451;47.988;7.842;2023-02-22T14:19:03;22.60;;;16.20;;
928;SDS011;451;47.988;7.842;2023-02-22T14:28:36;19.37;;;15.70;;
928;SDS011;451;47.988;7.842;2023-02-22T14:37:42;17.90;;;15.70;;
928;SDS011;451;47.988;7.842;2023-02-22T14:46:56;21.70;;;17.07;;
928;SDS011;451;47.988;7.842;2023-02-22T14:56:06;20.50;;;16.70;;
928;SDS011;451;47.988;7.842;2023-02-22T15:05:17;23.30;;;15.63;;
928;SDS011;451;47.988;7.842;2023-02-22T15:14:22;18.47;;;15.43;;
928;SDS011;451;47.988;7.842;2023-02-22T15:23:29;23.03;;;17.57;;
928;SDS011;451;47.988;7.842;2023-02-22T15:32:43;21.83;;;17.47;;
928;SDS011;451;47.988;7.842;2023-02-22T15:41:47;23.50;;;17.50;;
928;SDS011;451;47.988;7.842;2023-02-22T16:00:19;21.10;;;15.87;;
928;SDS011;451;47.988;7.842;2023-02-22T16:09:25;24.03;;;16.80;;
928;SDS011;451;47.988;7.842;2023-02-22T16:18:32;20.40;;;14.50;;
928;SDS011;451;47.988;7.842;2023-02-22T16:27:39;23.47;;;15.53;;
928;SDS011;451;47.988;7.842;2023-02-22T16:36:49;25.90;;;14.70;;
928;SDS011;451;47.988;7.842;2023-02-22T16:45:52;25.30;;;15.50;;
928;SDS011;451;47.988;7.842;2023-02-22T16:54:57;25.13;;;14.73;;
928;SDS011;451;47.988;7.842;2023-02-22T17:04:00;23.20;;;16.10;;
928;SDS011;451;47.988;7.842;2023-02-22T17:13:05;30.70;;;18.80;;
928;SDS011;451;47.988;7.842;2023-02-22T17:22:10;22.07;;;16.50;;
928;SDS011;451;47.988;7.842;2023-02-22T17:31:21;30.00;;;20.40;;
928;SDS011;451;47.988;7.842;2023-02-22T17:40:26;46.00;;;29.83;;
928;SDS011;451;47.988;7.842;2023-02-22T17:49:31;29.10;;;18.23;;
928;SDS011;451;47.988;7.842;2023-02-22T17:58:34;25.90;;;18.00;;
928;SDS011;451;47.988;7.842;2023-02-22T18:07:39;33.60;;;19.83;;
928;SDS011;451;47.988;7.842;2023-02-22T18:16:43;27.03;;;18.97;;
928;SDS011;451;47.988;7.842;2023-02-22T18:25:51;31.67;;;20.67;;
928;SDS011;451;47.988;7.842;2023-02-22T18:34:54;30.63;;;19.93;;
928;SDS011;451;47.988;7.842;2023-02-22T18:43:58;27.03;;;17.50;;
928;SDS011;451;47.988;7.842;2023-02-22T18:53:01;22.03;;;15.87;;
928;SDS011;451;47.988;7.842;2023-02-22T19:02:06;17.73;;;13.20;;
928;SDS011;451;47.988;7.842;2023-02-22T19:11:15;17.30;;;12.07;;
928;SDS011;451;47.988;7.842;2023-02-22T19:20:21;14.20;;;10.03;;
928;SDS011;451;47.988;7.842;2023-02-22T19:29:25;11.00;;;9.50;;
928;SDS011;451;47.988;7.842;2023-02-22T19:38:33;11.17;;;8.63;;
928;SDS011;451;47.988;7.842;2023-02-22T19:47:36;9.13;;;7.60;;
928;SDS011;451;47.988;7.842;2023-02-22T19:56:40;8.33;;;7.43;;
928;SDS011;451;47.988;7.842;2023-02-22T20:05:43;9.23;;;6.67;;
928;SDS011;451;47.988;7.842;2023-02-22T20:14:47;6.80;;;6.20;;
928;SDS011;451;47.988;7.842;2023-02-22T20:23:50;12.57;;;6.63;;
928;SDS011;451;47.988;7.842;2023-02-22T20:32:59;12.83;;;10.60;;
928;SDS011;451;47.988;7.842;2023-02-22T20:42:02;13.37;;;11.10;;
928;SDS011;451;47.988;7.842;2023-02-22T20:51:09;24.77;;;13.47;;
928;SDS011;451;47.988;7.842;2023-02-22T21:00:13;12.87;;;9.77;;
928;SDS011;451;47.988;7.842;2023-02-22T21:09:19;10.20;;;6.97;;
928;SDS011;451;47.988;7.842;2023-02-22T21:18:23;9.23;;;6.70;;
928;SDS011;451;47.988;7.842;2023-02-22T21:27:27;7.87;;;6.27;;
928;SDS011;451;47.988;7.842;2023-02-22T21:36:30;5.70;;;5.20;;
928;SDS011;451;47.988;7.842;2023-02-22T21:45:35;9.30;;;6.33;;
928;SDS011;451;47.988;7.842;2023-02-22T21:54:38;8.50;;;5.27;;
928;SDS011;451;47.988;7.842;2023-02-22T22:03:43;9.80;;;7.13;;
928;SDS011;451;47.988;7.842;2023-02-22T22:12:47;10.50;;;7.47;;
928;SDS011;451;47.988;7.842;2023-02-22T22:21:52;10.33;;;7.60;;
928;SDS011;451;47.988;7.842;2023-02-22T22:30:56;8.27;;;6.63;;
928;SDS011;451;47.988;7.842;2023-02-22T22:40:03;8.50;;;6.90;;
928;SDS011;451;47.988;7.842;2023-02-22T22:49:06;11.63;;;6.60;;
928;SDS011;451;47.988;7.842;2023-02-22T22:58:11;8.00;;;5.63;;
928;SDS011;451;47.988;7.842;2023-02-22T23:07:14;6.40;;;5.47;;
928;SDS011;451;47.988;7.842;2023-02-22T23:16:18;7.63;;;5.07;;
928;SDS011;451;47.988;7.842;2023-02-22T23:25:21;6.17;;;5.50;;
928;SDS011;451;47.988;7.842;2023-02-22T23:34:27;10.00;;;5.87;;
928;SDS011;451;47.988;7.842;2023-02-22T23:43:30;5.27;;;4.47;;
928;SDS011;451;47.988;7.842;2023-02-22T23:52:35;6.80;;;4.77;;
